Weather at Concord-Padgett Regional Airport

Public forecast

Using degrees Fahrenheit for public forecast. Weather courtesy of forecast.io.

Current aviation weather report (METAR) for Concord-Padgett Regional Airport

Retrieved 2020/10/01 10:50 UTC (1 hour ago):

KJQF 011050Z 00000KT 10SM CLR 11/10 A3003

Closest aviation forecast (TAF) to Concord-Padgett Regional Airport

Closest forecast is Charlotte Douglas International Airport, 15.5 nm (28.7 km) SW. Retrieved 2020/10/01 06:42 UTC (5 hours ago):

TAF KCLT 010539Z 0106/0212 20005KT P6SM SKC FM012100 23005KT P6SM FEW045 FM020000 35009G15KT P6SM VCSH BKN045 FM020500 35005KT P6SM FEW250